sensor_id;sensor_type;location;lat;lon;timestamp;temperature;humidity
17170;DHT22;8700;48.222;16.342;2023-03-14T00:03:14;11.60;99.90
17170;DHT22;8700;48.222;16.342;2023-03-14T00:06:35;11.70;99.90
17170;DHT22;8700;48.222;16.342;2023-03-14T00:09:56;11.70;99.90
17170;DHT22;8700;48.222;16.342;2023-03-14T00:13:18;11.70;99.90
17170;DHT22;8700;48.222;16.342;2023-03-14T00:16:40;11.60;99.90
17170;DHT22;8700;48.222;16.342;2023-03-14T00:20:02;11.60;99.90
17170;DHT22;8700;48.222;16.342;2023-03-14T00:23:29;11.70;99.90
17170;DHT22;8700;48.222;16.342;2023-03-14T00:26:50;11.60;99.90
17170;DHT22;8700;48.222;16.342;2023-03-14T00:30:12;11.60;99.90
17170;DHT22;8700;48.222;16.342;2023-03-14T00:33:35;11.70;99.90
17170;DHT22;8700;48.222;16.342;2023-03-14T00:36:56;11.70;99.90
17170;DHT22;8700;48.222;16.342;2023-03-14T00:40:18;11.60;99.90
17170;DHT22;8700;48.222;16.342;2023-03-14T00:43:39;11.70;99.90
17170;DHT22;8700;48.222;16.342;2023-03-14T00:47:00;11.70;99.90
17170;DHT22;8700;48.222;16.342;2023-03-14T00:50:23;11.70;99.90
17170;DHT22;8700;48.222;16.342;2023-03-14T00:53:44;11.60;99.90
17170;DHT22;8700;48.222;16.342;2023-03-14T00:57:05;11.60;99.90
17170;DHT22;8700;48.222;16.342;2023-03-14T01:00:27;11.60;99.90
17170;DHT22;8700;48.222;16.342;2023-03-14T01:03:51;11.50;99.90
17170;DHT22;8700;48.222;16.342;2023-03-14T01:07:14;11.40;99.90
17170;DHT22;8700;48.222;16.342;2023-03-14T03:06:26;9.40;99.90
17170;DHT22;8700;48.222;16.342;2023-03-14T03:09:47;9.30;99.90
17170;DHT22;8700;48.222;16.342;2023-03-14T03:13:08;9.30;99.90
17170;DHT22;8700;48.222;16.342;2023-03-14T03:16:30;9.30;99.90
17170;DHT22;8700;48.222;16.342;2023-03-14T03:19:51;9.40;99.90
17170;DHT22;8700;48.222;16.342;2023-03-14T03:23:14;9.50;99.90
17170;DHT22;8700;48.222;16.342;2023-03-14T03:26:35;9.70;99.90
17170;DHT22;8700;48.222;16.342;2023-03-14T03:29:57;9.70;99.90
17170;DHT22;8700;48.222;16.342;2023-03-14T03:33:18;9.40;99.90
17170;DHT22;8700;48.222;16.342;2023-03-14T03:36:39;9.40;99.90
17170;DHT22;8700;48.222;16.342;2023-03-14T03:40:03;9.30;99.90
17170;DHT22;8700;48.222;16.342;2023-03-14T03:43:25;9.50;99.90
17170;DHT22;8700;48.222;16.342;2023-03-14T03:46:51;9.70;99.90
17170;DHT22;8700;48.222;16.342;2023-03-14T03:50:15;9.90;99.90
17170;DHT22;8700;48.222;16.342;2023-03-14T03:53:42;10.00;99.90
17170;DHT22;8700;48.222;16.342;2023-03-14T03:57:06;10.00;99.90
17170;DHT22;8700;48.222;16.342;2023-03-14T04:00:27;10.00;99.90
17170;DHT22;8700;48.222;16.342;2023-03-14T04:03:53;10.00;99.90
17170;DHT22;8700;48.222;16.342;2023-03-14T04:07:14;10.10;99.90
17170;DHT22;8700;48.222;16.342;2023-03-14T04:10:35;10.10;99.90
17170;DHT22;8700;48.222;16.342;2023-03-14T04:13:58;10.20;99.90
17170;DHT22;8700;48.222;16.342;2023-03-14T04:17:19;10.10;99.90
17170;DHT22;8700;48.222;16.342;2023-03-14T04:20:40;10.00;99.90
17170;DHT22;8700;48.222;16.342;2023-03-14T04:24:02;10.00;99.90
17170;DHT22;8700;48.222;16.342;2023-03-14T04:27:23;9.90;99.90
17170;DHT22;8700;48.222;16.342;2023-03-14T04:30:45;9.90;99.90
17170;DHT22;8700;48.222;16.342;2023-03-14T04:34:06;9.90;99.90
17170;DHT22;8700;48.222;16.342;2023-03-14T04:37:28;9.90;99.90
17170;DHT22;8700;48.222;16.342;2023-03-14T04:40:49;10.20;99.90
17170;DHT22;8700;48.222;16.342;2023-03-14T04:44:10;10.40;99.90
17170;DHT22;8700;48.222;16.342;2023-03-14T04:47:33;10.70;99.90
17170;DHT22;8700;48.222;16.342;2023-03-14T04:50:54;10.90;99.90
17170;DHT22;8700;48.222;16.342;2023-03-14T04:54:16;11.10;99.90
17170;DHT22;8700;48.222;16.342;2023-03-14T04:57:37;11.20;99.90
17170;DHT22;8700;48.222;16.342;2023-03-14T05:01:02;11.10;99.90
17170;DHT22;8700;48.222;16.342;2023-03-14T05:04:25;11.20;99.90
17170;DHT22;8700;48.222;16.342;2023-03-14T05:07:46;11.30;99.90
17170;DHT22;8700;48.222;16.342;2023-03-14T05:11:10;11.40;99.90
17170;DHT22;8700;48.222;16.342;2023-03-14T05:14:31;11.60;99.90
17170;DHT22;8700;48.222;16.342;2023-03-14T05:17:53;11.70;99.90
17170;DHT22;8700;48.222;16.342;2023-03-14T05:21:23;11.60;99.90
17170;DHT22;8700;48.222;16.342;2023-03-14T05:24:45;11.70;99.90
17170;DHT22;8700;48.222;16.342;2023-03-14T05:28:08;11.70;99.90
17170;DHT22;8700;48.222;16.342;2023-03-14T05:31:30;11.70;99.90
17170;DHT22;8700;48.222;16.342;2023-03-14T05:34:57;11.60;99.90
17170;DHT22;8700;48.222;16.342;2023-03-14T05:38:23;11.60;99.90
17170;DHT22;8700;48.222;16.342;2023-03-14T05:41:46;11.70;99.90
17170;DHT22;8700;48.222;16.342;2023-03-14T05:45:08;11.70;99.90
17170;DHT22;8700;48.222;16.342;2023-03-14T05:48:29;11.70;99.90
17170;DHT22;8700;48.222;16.342;2023-03-14T05:51:50;11.60;99.90
17170;DHT22;8700;48.222;16.342;2023-03-14T05:55:13;11.60;99.90
17170;DHT22;8700;48.222;16.342;2023-03-14T05:58:34;11.70;99.90
17170;DHT22;8700;48.222;16.342;2023-03-14T06:01:55;11.50;99.90
17170;DHT22;8700;48.222;16.342;2023-03-14T06:05:17;11.40;99.90
17170;DHT22;8700;48.222;16.342;2023-03-14T06:08:38;11.30;99.90
17170;DHT22;8700;48.222;16.342;2023-03-14T06:12:00;11.30;99.90
17170;DHT22;8700;48.222;16.342;2023-03-14T06:15:21;11.40;99.90
17170;DHT22;8700;48.222;16.342;2023-03-14T06:18:43;11.50;99.90
17170;DHT22;8700;48.222;16.342;2023-03-14T06:22:06;11.60;99.90
17170;DHT22;8700;48.222;16.342;2023-03-14T06:25:27;11.70;99.90
17170;DHT22;8700;48.222;16.342;2023-03-14T06:28:49;11.80;99.90
17170;DHT22;8700;48.222;16.342;2023-03-14T06:32:13;11.90;99.90
17170;DHT22;8700;48.222;16.342;2023-03-14T06:35:34;11.90;99.90
17170;DHT22;8700;48.222;16.342;2023-03-14T06:38:56;11.70;99.90
17170;DHT22;8700;48.222;16.342;2023-03-14T06:42:17;11.70;99.90
17170;DHT22;8700;48.222;16.342;2023-03-14T06:45:39;11.80;99.90
17170;DHT22;8700;48.222;16.342;2023-03-14T06:49:00;12.00;99.90
17170;DHT22;8700;48.222;16.342;2023-03-14T06:52:22;12.40;99.90
17170;DHT22;8700;48.222;16.342;2023-03-14T06:55:43;12.50;99.90
17170;DHT22;8700;48.222;16.342;2023-03-14T06:59:05;12.40;99.90
17170;DHT22;8700;48.222;16.342;2023-03-14T07:02:28;12.30;99.90
17170;DHT22;8700;48.222;16.342;2023-03-14T07:05:49;12.40;99.90
17170;DHT22;8700;48.222;16.342;2023-03-14T07:09:10;12.50;99.90
17170;DHT22;8700;48.222;16.342;2023-03-14T07:12:32;12.80;99.90
17170;DHT22;8700;48.222;16.342;2023-03-14T07:15:53;13.00;99.90
17170;DHT22;8700;48.222;16.342;2023-03-14T07:19:16;13.10;99.90
17170;DHT22;8700;48.222;16.342;2023-03-14T07:22:37;13.10;99.90
17170;DHT22;8700;48.222;16.342;2023-03-14T07:25:58;13.00;99.90
17170;DHT22;8700;48.222;16.342;2023-03-14T07:29:20;13.00;99.90
17170;DHT22;8700;48.222;16.342;2023-03-14T07:32:41;13.00;99.90
17170;DHT22;8700;48.222;16.342;2023-03-14T07:36:04;12.90;99.90
17170;DHT22;8700;48.222;16.342;2023-03-14T07:39:25;13.00;99.90
17170;DHT22;8700;48.222;16.342;2023-03-14T07:42:46;12.90;99.90
17170;DHT22;8700;48.222;16.342;2023-03-14T07:46:08;12.90;99.90
17170;DHT22;8700;48.222;16.342;2023-03-14T07:49:29;13.00;99.90
17170;DHT22;8700;48.222;16.342;2023-03-14T07:52:52;13.30;99.90
17170;DHT22;8700;48.222;16.342;2023-03-14T07:56:13;13.70;99.90
17170;DHT22;8700;48.222;16.342;2023-03-14T07:59:34;14.00;99.90
17170;DHT22;8700;48.222;16.342;2023-03-14T08:02:55;14.20;99.90
17170;DHT22;8700;48.222;16.342;2023-03-14T08:06:17;14.40;99.90
17170;DHT22;8700;48.222;16.342;2023-03-14T08:09:40;14.60;99.90
17170;DHT22;8700;48.222;16.342;2023-03-14T08:13:08;14.60;99.90
17170;DHT22;8700;48.222;16.342;2023-03-14T08:16:32;14.50;99.90
17170;DHT22;8700;48.222;16.342;2023-03-14T08:19:54;14.30;99.90
17170;DHT22;8700;48.222;16.342;2023-03-14T08:23:15;14.20;99.90
17170;DHT22;8700;48.222;16.342;2023-03-14T08:26:38;14.20;99.90
17170;DHT22;8700;48.222;16.342;2023-03-14T08:29:59;14.40;99.90
17170;DHT22;8700;48.222;16.342;2023-03-14T08:33:20;14.60;99.90
17170;DHT22;8700;48.222;16.342;2023-03-14T08:36:41;14.60;99.90
17170;DHT22;8700;48.222;16.342;2023-03-14T08:40:04;14.50;99.90
17170;DHT22;8700;48.222;16.342;2023-03-14T08:43:29;14.40;99.90
17170;DHT22;8700;48.222;16.342;2023-03-14T08:46:50;14.30;99.90
17170;DHT22;8700;48.222;16.342;2023-03-14T08:50:12;14.30;99.90
17170;DHT22;8700;48.222;16.342;2023-03-14T08:53:34;14.20;99.90
17170;DHT22;8700;48.222;16.342;2023-03-14T08:56:55;14.10;99.90
17170;DHT22;8700;48.222;16.342;2023-03-14T09:00:19;14.20;99.90
17170;DHT22;8700;48.222;16.342;2023-03-14T09:03:40;14.20;99.90
17170;DHT22;8700;48.222;16.342;2023-03-14T09:07:02;14.30;99.90
17170;DHT22;8700;48.222;16.342;2023-03-14T09:10:23;14.40;99.90
17170;DHT22;8700;48.222;16.342;2023-03-14T09:13:44;14.60;99.90
17170;DHT22;8700;48.222;16.342;2023-03-14T09:17:08;14.70;99.90
17170;DHT22;8700;48.222;16.342;2023-03-14T09:20:29;14.90;99.90
17170;DHT22;8700;48.222;16.342;2023-03-14T09:23:50;14.80;99.90
17170;DHT22;8700;48.222;16.342;2023-03-14T09:27:12;14.80;99.90
17170;DHT22;8700;48.222;16.342;2023-03-14T09:30:33;14.90;99.90
17170;DHT22;8700;48.222;16.342;2023-03-14T09:33:57;15.00;99.90
17170;DHT22;8700;48.222;16.342;2023-03-14T09:37:18;15.20;99.90
17170;DHT22;8700;48.222;16.342;2023-03-14T09:40:41;15.30;99.90
17170;DHT22;8700;48.222;16.342;2023-03-14T09:44:05;15.20;99.90
17170;DHT22;8700;48.222;16.342;2023-03-14T09:47:27;15.30;99.90
17170;DHT22;8700;48.222;16.342;2023-03-14T09:50:53;15.30;99.90
17170;DHT22;8700;48.222;16.342;2023-03-14T09:54:31;15.50;99.90
17170;DHT22;8700;48.222;16.342;2023-03-14T09:57:59;15.60;99.90
17170;DHT22;8700;48.222;16.342;2023-03-14T10:01:24;15.80;99.90
17170;DHT22;8700;48.222;16.342;2023-03-14T10:04:47;15.80;99.90
17170;DHT22;8700;48.222;16.342;2023-03-14T10:08:13;15.80;99.90
17170;DHT22;8700;48.222;16.342;2023-03-14T10:11:35;15.70;99.90
17170;DHT22;8700;48.222;16.342;2023-03-14T10:15:07;15.60;99.90
17170;DHT22;8700;48.222;16.342;2023-03-14T10:18:35;15.50;99.90
17170;DHT22;8700;48.222;16.342;2023-03-14T10:22:14;15.40;99.90
17170;DHT22;8700;48.222;16.342;2023-03-14T10:26:00;15.40;99.90
17170;DHT22;8700;48.222;16.342;2023-03-14T10:29:53;15.40;99.90
17170;DHT22;8700;48.222;16.342;2023-03-14T10:33:57;15.30;99.90
17170;DHT22;8700;48.222;16.342;2023-03-14T10:37:50;15.30;99.90
17170;DHT22;8700;48.222;16.342;2023-03-14T10:51:10;15.10;99.90
17170;DHT22;8700;48.222;16.342;2023-03-14T11:23:11;13.60;99.90
17170;DHT22;8700;48.222;16.342;2023-03-14T11:31:52;13.50;99.90
17170;DHT22;8700;48.222;16.342;2023-03-14T11:40:37;13.10;99.90
17170;DHT22;8700;48.222;16.342;2023-03-14T11:54:11;13.20;99.90
17170;DHT22;8700;48.222;16.342;2023-03-14T12:07:42;12.80;99.90
17170;DHT22;8700;48.222;16.342;2023-03-14T12:16:31;13.10;99.90
17170;DHT22;8700;48.222;16.342;2023-03-14T12:30:01;12.80;99.90
17170;DHT22;8700;48.222;16.342;2023-03-14T13:02:10;12.70;99.90
17170;DHT22;8700;48.222;16.342;2023-03-14T13:11:48;12.90;99.90
17170;DHT22;8700;48.222;16.342;2023-03-14T13:15:44;12.80;99.90
17170;DHT22;8700;48.222;16.342;2023-03-14T13:19:39;13.10;99.90
17170;DHT22;8700;48.222;16.342;2023-03-14T13:23:28;13.00;99.90
17170;DHT22;8700;48.222;16.342;2023-03-14T13:26:54;12.90;99.90
17170;DHT22;8700;48.222;16.342;2023-03-14T13:48:36;12.50;99.90
17170;DHT22;8700;48.222;16.342;2023-03-14T13:56:48;12.90;99.90
17170;DHT22;8700;48.222;16.342;2023-03-14T14:00:21;13.00;99.90
17170;DHT22;8700;48.222;16.342;2023-03-14T14:03:49;12.90;99.90
17170;DHT22;8700;48.222;16.342;2023-03-14T14:07:15;12.80;99.90
17170;DHT22;8700;48.222;16.342;2023-03-14T14:10:38;12.70;99.90
17170;DHT22;8700;48.222;16.342;2023-03-14T14:14:00;12.30;99.90
17170;DHT22;8700;48.222;16.342;2023-03-14T14:17:25;12.50;99.90
17170;DHT22;8700;48.222;16.342;2023-03-14T14:20:49;12.50;99.90
17170;DHT22;8700;48.222;16.342;2023-03-14T14:24:14;12.60;99.90
17170;DHT22;8700;48.222;16.342;2023-03-14T14:27:38;12.60;99.90
17170;DHT22;8700;48.222;16.342;2023-03-14T14:31:20;12.60;99.90
17170;DHT22;8700;48.222;16.342;2023-03-14T14:34:44;12.70;99.90
17170;DHT22;8700;48.222;16.342;2023-03-14T14:38:12;12.80;99.90
17170;DHT22;8700;48.222;16.342;2023-03-14T14:41:40;13.00;99.90
17170;DHT22;8700;48.222;16.342;2023-03-14T14:45:03;13.00;99.90
17170;DHT22;8700;48.222;16.342;2023-03-14T14:48:25;13.30;99.90
17170;DHT22;8700;48.222;16.342;2023-03-14T14:51:50;13.40;99.90
17170;DHT22;8700;48.222;16.342;2023-03-14T14:55:17;13.60;99.90
17170;DHT22;8700;48.222;16.342;2023-03-14T14:58:40;13.50;99.90
17170;DHT22;8700;48.222;16.342;2023-03-14T15:02:02;13.40;99.90
17170;DHT22;8700;48.222;16.342;2023-03-14T15:05:27;13.40;99.90
17170;DHT22;8700;48.222;16.342;2023-03-14T15:13:21;13.40;99.90
17170;DHT22;8700;48.222;16.342;2023-03-14T15:16:42;13.40;99.90
17170;DHT22;8700;48.222;16.342;2023-03-14T15:20:04;13.40;99.90
17170;DHT22;8700;48.222;16.342;2023-03-14T15:23:27;13.40;99.90
17170;DHT22;8700;48.222;16.342;2023-03-14T15:26:49;13.30;99.90
17170;DHT22;8700;48.222;16.342;2023-03-14T15:30:14;13.40;99.90
17170;DHT22;8700;48.222;16.342;2023-03-14T15:33:36;13.60;99.90
17170;DHT22;8700;48.222;16.342;2023-03-14T15:36:57;13.70;99.90
17170;DHT22;8700;48.222;16.342;2023-03-14T15:40:19;13.90;99.90
17170;DHT22;8700;48.222;16.342;2023-03-14T15:43:42;13.80;99.90
17170;DHT22;8700;48.222;16.342;2023-03-14T15:47:05;13.70;99.90
17170;DHT22;8700;48.222;16.342;2023-03-14T15:50:27;13.90;99.90
17170;DHT22;8700;48.222;16.342;2023-03-14T15:53:49;13.90;99.90
17170;DHT22;8700;48.222;16.342;2023-03-14T15:57:11;13.80;99.90
17170;DHT22;8700;48.222;16.342;2023-03-14T16:00:32;13.40;99.90
17170;DHT22;8700;48.222;16.342;2023-03-14T16:03:56;13.30;99.90
17170;DHT22;8700;48.222;16.342;2023-03-14T16:07:17;13.20;99.90
17170;DHT22;8700;48.222;16.342;2023-03-14T16:10:39;13.30;99.90
17170;DHT22;8700;48.222;16.342;2023-03-14T16:14:07;13.40;99.90
17170;DHT22;8700;48.222;16.342;2023-03-14T16:17:29;13.40;99.90
17170;DHT22;8700;48.222;16.342;2023-03-14T16:20:54;13.40;99.90
17170;DHT22;8700;48.222;16.342;2023-03-14T16:24:16;13.50;99.90
17170;DHT22;8700;48.222;16.342;2023-03-14T16:27:37;13.50;99.90
17170;DHT22;8700;48.222;16.342;2023-03-14T16:31:02;13.50;99.90
17170;DHT22;8700;48.222;16.342;2023-03-14T16:34:24;13.60;99.90
17170;DHT22;8700;48.222;16.342;2023-03-14T16:37:46;13.60;99.90
17170;DHT22;8700;48.222;16.342;2023-03-14T16:41:11;13.70;99.90
17170;DHT22;8700;48.222;16.342;2023-03-14T16:44:32;13.60;99.90
17170;DHT22;8700;48.222;16.342;2023-03-14T16:47:54;13.70;99.90
17170;DHT22;8700;48.222;16.342;2023-03-14T16:51:16;13.70;99.90
17170;DHT22;8700;48.222;16.342;2023-03-14T16:54:39;13.50;99.90
17170;DHT22;8700;48.222;16.342;2023-03-14T16:58:00;13.30;99.90
17170;DHT22;8700;48.222;16.342;2023-03-14T22:14:44;10.60;99.90
17170;DHT22;8700;48.222;16.342;2023-03-14T22:18:35;10.40;99.90
17170;DHT22;8700;48.222;16.342;2023-03-14T22:22:28;10.50;99.90
17170;DHT22;8700;48.222;16.342;2023-03-14T22:26:21;10.70;99.90
17170;DHT22;8700;48.222;16.342;2023-03-14T22:29:45;10.40;99.90
17170;DHT22;8700;48.222;16.342;2023-03-14T22:33:13;10.50;99.90
17170;DHT22;8700;48.222;16.342;2023-03-14T22:37:03;10.30;99.90
17170;DHT22;8700;48.222;16.342;2023-03-14T22:40:58;10.30;99.90
17170;DHT22;8700;48.222;16.342;2023-03-14T22:44:51;10.30;99.90
17170;DHT22;8700;48.222;16.342;2023-03-14T22:48:40;10.40;99.90
17170;DHT22;8700;48.222;16.342;2023-03-14T22:53:33;10.20;99.90
17170;DHT22;8700;48.222;16.342;2023-03-14T22:57:26;10.40;99.90
17170;DHT22;8700;48.222;16.342;2023-03-14T23:06:09;10.30;99.90
17170;DHT22;8700;48.222;16.342;2023-03-14T23:10:05;10.30;99.90
17170;DHT22;8700;48.222;16.342;2023-03-14T23:18:51;10.30;99.90
17170;DHT22;8700;48.222;16.342;2023-03-14T23:27:33;10.20;99.90
17170;DHT22;8700;48.222;16.342;2023-03-14T23:31:30;10.20;99.90
17170;DHT22;8700;48.222;16.342;2023-03-14T23:40:16;10.30;99.90
17170;DHT22;8700;48.222;16.342;2023-03-14T23:48:57;10.10;99.90
17170;DHT22;8700;48.222;16.342;2023-03-14T23:52:57;9.70;99.90
17170;DHT22;8700;48.222;16.342;2023-03-14T23:56:47;9.90;99.90
